Saint Peter Port, United Kingdom
Current Conditions -  °F | °C
As of 5:20 AM on Monday 20 Oct 2014 (Local Time) from EGJB Reporting Station
Few Clouds Few Clouds  
Wind Chill: 14°   Ceiling: Unl
Heat Index: 14°   Visibility: 6mi
Dew Point: 13°   Wind: 13mph
Humidity: 94%   Direction: 260°W
Pressure: 30.12"   Gusts: NA
Location:  49.46°N, 2.54°W
Report Text: EGJB 200420Z 26011KT 9999 FEW014 14/13 Q1020
Loading
Personal Weather Stations






























Interactive Weather Map
Tropical Storm Tracking
New forecast layout! Learn more

10-Day Weather Forecast

Advertisements
Track Severe Weather on mobile